Time;durP1;ratioP1;P1;durP2;ratioP2;P2;SDS_P1;SDS_P2;PMS_P1;PMS_P2;Temp;Humidity;BMP_temperature;BMP_pressure;BME280_temperature;BME280_humidity;BME280_pressure;Samples;Min_cycle;Max_cycle;Signal;HPM_P1;HPM_P2
2024/02/26 00:01:12;;;;;;;6.50;3.97;;;;;;;6.46;75.72;98352.75;4840164;29;20140;-78
2024/02/26 00:03:41;;;;;;;4.90;3.55;;;;;;;6.42;75.66;98352.09;4839952;29;20141;-76
2024/02/26 00:06:08;;;;;;;4.70;3.80;;;;;;;6.40;75.65;98346.16;4823712;29;20058;-79
2024/02/26 00:08:34;;;;;;;4.53;4.00;;;;;;;6.37;75.39;98344.56;4839898;29;20074;-78
2024/02/26 00:11:01;;;;;;;6.55;4.20;;;;;;;6.35;75.43;98342.97;4839916;29;20092;-77
2024/02/26 00:13:28;;;;;;;5.40;4.10;;;;;;;6.31;75.29;98337.09;4840071;29;20057;-77
2024/02/26 00:15:54;;;;;;;5.38;4.00;;;;;;;6.28;75.57;98345.13;4839974;29;20073;-76
2024/02/26 00:18:21;;;;;;;5.40;4.13;;;;;;;6.25;75.59;98347.94;4839669;29;20054;-79
2024/02/26 00:20:48;;;;;;;6.18;4.15;;;;;;;6.21;75.49;98342.03;4839956;29;20061;-76
2024/02/26 00:23:17;;;;;;;6.10;4.63;;;;;;;6.17;75.40;98353.63;4839783;29;20138;-77
2024/02/26 00:25:43;;;;;;;6.18;4.20;;;;;;;6.16;75.86;98348.50;4839760;29;20058;-77
2024/02/26 00:28:10;;;;;;;6.72;4.90;;;;;;;6.12;75.80;98343.47;4839877;29;20058;-76
2024/02/26 00:30:37;;;;;;;6.55;4.70;;;;;;;6.09;76.04;98340.22;4840341;29;20526;-79
2024/02/26 00:33:03;;;;;;;7.18;5.00;;;;;;;6.06;75.96;98341.22;4839581;29;20061;-76
2024/02/26 00:35:30;;;;;;;6.30;4.75;;;;;;;6.04;76.01;98347.47;4839961;29;20057;-78
2024/02/26 00:37:58;;;;;;;7.65;5.57;;;;;;;6.02;76.21;98341.47;4823276;29;20060;-77
2024/02/26 00:40:25;;;;;;;7.22;4.70;;;;;;;5.99;76.21;98351.16;4839783;29;20149;-78
2024/02/26 00:42:51;;;;;;;7.00;4.40;;;;;;;5.96;76.22;98350.53;4839741;29;20448;-77
2024/02/26 00:45:24;;;;;;;7.47;4.63;;;;;;;5.93;75.78;98358.53;4823525;29;20058;-78
2024/02/26 00:47:50;;;;;;;6.15;4.20;;;;;;;5.94;76.35;98365.47;4839767;29;20145;-79
2024/02/26 00:50:18;;;;;;;6.45;4.45;;;;;;;5.90;76.49;98354.34;4839858;29;20062;-78
2024/02/26 00:52:45;;;;;;;5.53;4.53;;;;;;;5.90;76.91;98358.75;4839363;29;20134;-79
2024/02/26 00:55:12;;;;;;;5.97;4.57;;;;;;;5.88;76.89;98353.63;4839753;29;20065;-77
2024/02/26 00:57:40;;;;;;;6.70;4.43;;;;;;;5.88;76.58;98361.44;4839455;29;20489;-77
2024/02/26 01:00:13;;;;;;;4.85;4.05;;;;;;;5.84;76.13;98358.16;4839603;29;20065;-77
2024/02/26 01:02:41;;;;;;;5.35;4.18;;;;;;;5.86;76.83;98353.69;4839629;29;20053;-77
2024/02/26 01:05:09;;;;;;;5.28;4.05;;;;;;;5.85;77.00;98351.19;4840157;29;20062;-76
2024/02/26 01:07:36;;;;;;;5.82;3.97;;;;;;;5.85;77.37;98357.25;4839448;29;20054;-77
2024/02/26 01:10:03;;;;;;;6.10;3.90;;;;;;;5.85;77.16;98357.25;4839379;29;20093;-76
2024/02/26 01:12:30;;;;;;;5.53;4.07;;;;;;;5.84;77.16;98358.16;4839199;29;20068;-78
2024/02/26 01:14:56;;;;;;;3.75;3.35;;;;;;;5.85;77.35;98370.31;4840791;29;20405;-77
2024/02/26 01:17:23;;;;;;;5.55;4.03;;;;;;;5.85;77.54;98365.09;4842731;29;20058;-77
2024/02/26 01:19:50;;;;;;;5.45;4.20;;;;;;;5.87;77.59;98365.81;4843120;29;20101;-77
2024/02/26 01:22:17;;;;;;;5.18;3.95;;;;;;;5.88;77.35;98364.06;4842948;29;20136;-77
2024/02/26 01:24:44;;;;;;;5.68;4.28;;;;;;;5.90;77.34;98363.97;4842794;29;20113;-77
2024/02/26 01:27:10;;;;;;;9.07;4.95;;;;;;;5.92;77.45;98368.16;4826006;29;20061;-80
2024/02/26 01:29:37;;;;;;;5.63;4.40;;;;;;;5.94;77.00;98371.50;4825821;29;20054;-78
2024/02/26 01:32:05;;;;;;;7.15;4.57;;;;;;;5.93;77.03;98367.22;4842688;29;20076;-77
2024/02/26 01:34:32;;;;;;;5.93;4.55;;;;;;;5.94;76.89;98363.69;4842467;29;20465;-77
2024/02/26 01:36:59;;;;;;;5.85;4.57;;;;;;;5.94;76.97;98362.84;4842896;29;20062;-76
2024/02/26 01:39:26;;;;;;;6.28;4.72;;;;;;;5.92;77.06;98362.94;4842761;29;20072;-80
2024/02/26 01:41:55;;;;;;;5.85;4.68;;;;;;;5.90;76.32;98356.13;4841407;29;20111;-76
2024/02/26 01:44:22;;;;;;;6.13;4.60;;;;;;;5.90;76.86;98350.91;4842415;29;20062;-77
2024/02/26 01:46:49;;;;;;;6.40;4.13;;;;;;;5.90;76.83;98356.13;4824075;29;20646;-77
2024/02/26 01:49:17;;;;;;;6.45;4.05;;;;;;;5.87;76.93;98357.97;4823780;29;20608;-79
2024/02/26 01:51:46;;;;;;;6.40;3.63;;;;;;;5.86;76.62;98351.09;4824539;29;20142;-76
2024/02/26 01:54:13;;;;;;;4.15;3.50;;;;;;;5.86;77.17;98351.09;4824264;29;20145;-77
2024/02/26 01:56:41;;;;;;;4.72;3.30;;;;;;;5.85;77.04;98351.19;4824076;29;20123;-77
2024/02/26 01:59:08;;;;;;;4.13;3.47;;;;;;;5.85;77.13;98351.19;4823500;29;20586;-77
2024/02/26 02:01:38;;;;;;;5.55;3.47;;;;;;;5.82;76.91;98340.91;4823849;29;20066;-76
2024/02/26 02:04:04;;;;;;;3.85;3.35;;;;;;;5.83;77.17;98340.00;4823817;29;20069;-80
2024/02/26 02:06:41;;;;;;;5.07;3.60;;;;;;;5.79;76.37;98338.50;4823963;29;20134;-77
2024/02/26 02:09:08;;;;;;;4.20;3.45;;;;;;;5.81;76.96;98337.47;4823491;29;20058;-77
2024/02/26 02:11:35;;;;;;;5.10;3.45;;;;;;;5.80;77.08;98338.38;4823669;29;20119;-77
2024/02/26 02:14:01;;;;;;;6.53;3.47;;;;;;;5.79;77.34;98344.53;4823476;29;20420;-79
2024/02/26 02:16:28;;;;;;;5.93;3.45;;;;;;;5.78;77.33;98345.47;4823891;29;20145;-79
2024/02/26 02:18:54;;;;;;;6.38;3.78;;;;;;;5.76;77.20;98343.91;4823216;29;20058;-77
2024/02/26 02:21:21;;;;;;;4.82;3.40;;;;;;;5.74;77.17;98360.50;4823499;29;20050;-77
2024/02/26 02:23:48;;;;;;;5.25;3.53;;;;;;;5.73;77.63;98352.75;4823208;29;20501;-80
2024/02/26 02:26:18;;;;;;;5.57;3.50;;;;;;;5.71;77.06;98354.59;4806054;29;20145;-77
2024/02/26 02:28:47;;;;;;;4.70;3.75;;;;;;;5.72;77.27;98357.13;4823249;29;20591;-77
2024/02/26 02:31:22;;;;;;;4.60;3.78;;;;;;;5.71;76.71;98357.22;4823547;29;20554;-80
2024/02/26 02:33:49;;;;;;;4.28;3.53;;;;;;;5.71;77.51;98360.69;4823123;29;20073;-77
2024/02/26 02:36:16;;;;;;;5.95;3.90;;;;;;;5.72;77.48;98364.13;4823463;29;20156;-77
2024/02/26 02:38:50;;;;;;;4.45;3.53;;;;;;;5.68;76.84;98357.41;4823267;29;20046;-76
2024/02/26 02:41:18;;;;;;;6.50;3.65;;;;;;;5.69;77.55;98362.53;4823103;29;20058;-79
2024/02/26 02:43:45;;;;;;;6.95;4.35;;;;;;;5.69;77.44;98362.53;4823041;29;20398;-77
2024/02/26 02:46:14;;;;;;;5.22;3.60;;;;;;;5.68;77.19;98358.25;4822981;29;20572;-78
2024/02/26 02:48:41;;;;;;;4.60;3.97;;;;;;;5.69;77.57;98361.69;4822852;29;20089;-77
2024/02/26 02:51:11;;;;;;;5.55;3.58;;;;;;;5.67;77.44;98358.31;4806889;29;20055;-76
2024/02/26 02:53:38;;;;;;;5.03;4.22;;;;;;;5.69;77.84;98366.94;4822906;29;20100;-76
2024/02/26 02:56:05;;;;;;;4.55;3.65;;;;;;;5.70;77.94;98366.00;4823203;29;20062;-77
2024/02/26 02:58:32;;;;;;;5.20;3.83;;;;;;;5.71;77.64;98365.06;4822897;29;20050;-76
2024/02/26 03:01:05;;;;;;;5.18;3.95;;;;;;;5.70;76.89;98366.00;4822956;29;20058;-77
2024/02/26 03:03:31;;;;;;;;;;;;;;;5.72;76.25;98367.56;4823253;29;20058;-76
2024/02/26 03:05:59;;;;;;;4.45;3.17;;;;;;;5.76;77.23;98370.88;4822738;29;19931;-76
2024/02/26 03:08:25;;;;;;;4.13;3.70;;;;;;;5.75;77.54;98366.53;4822775;29;20512;-76
2024/02/26 03:10:53;;;;;;;4.80;3.83;;;;;;;5.73;77.28;98366.63;4806483;29;20404;-75
2024/02/26 03:13:20;;;;;;;5.20;4.20;;;;;;;5.73;77.67;98371.03;4822529;29;20090;-76
2024/02/26 03:15:46;;;;;;;5.22;3.72;;;;;;;5.72;77.37;98371.97;4822883;29;20158;-78
2024/02/26 03:18:13;;;;;;;6.18;4.18;;;;;;;5.71;77.57;98372.88;4822914;29;20431;-79
2024/02/26 03:20:41;;;;;;;5.50;3.90;;;;;;;5.71;77.65;98378.94;4822604;29;20104;-76
2024/02/26 03:23:09;;;;;;;4.00;3.53;;;;;;;5.72;77.86;98387.63;4822973;29;20079;-78
2024/02/26 03:25:37;;;;;;;4.78;3.72;;;;;;;5.72;77.82;98387.63;4822526;29;20119;-77
2024/02/26 03:28:04;;;;;;;5.05;3.97;;;;;;;5.74;77.76;98390.97;4822417;29;20062;-76
2024/02/26 03:30:31;;;;;;;5.28;4.25;;;;;;;5.73;77.81;98397.16;4822307;29;20416;-77
2024/02/26 03:32:58;;;;;;;5.55;4.05;;;;;;;5.74;77.94;98396.22;4822333;29;20115;-77
2024/02/26 03:35:25;;;;;;;4.97;4.03;;;;;;;5.73;78.08;98395.34;4822401;29;20074;-78
2024/02/26 03:37:52;;;;;;;3.90;3.50;;;;;;;5.74;77.99;98390.97;4822256;29;20145;-78
2024/02/26 03:40:19;;;;;;;4.63;3.60;;;;;;;5.74;78.00;98399.66;4822460;29;20144;-80
2024/02/26 03:42:46;;;;;;;4.70;3.83;;;;;;;5.76;77.90;98399.59;4822235;29;20061;-77
2024/02/26 03:45:12;;;;;;;4.25;3.83;;;;;;;5.77;78.08;98409.09;4822526;29;20073;-78
2024/02/26 03:47:45;;;;;;;6.20;3.88;;;;;;;5.75;77.08;98408.31;4822595;29;20058;-77
2024/02/26 03:50:12;;;;;;;;;;;;;;;5.79;76.50;98404.59;4821204;29;20058;-77
2024/02/26 03:52:38;;;;;;;3.90;3.42;;;;;;;5.83;77.84;98407.91;4822360;29;19928;-79
2024/02/26 03:55:05;;;;;;;3.97;3.58;;;;;;;5.83;77.75;98405.28;4822425;29;20127;-77
2024/02/26 03:57:33;;;;;;;5.95;4.18;;;;;;;5.81;77.39;98409.75;4822195;29;20187;-77
2024/02/26 04:00:00;;;;;;;4.25;3.50;;;;;;;5.81;77.94;98407.97;4821978;29;20069;-77
2024/02/26 04:02:27;;;;;;;4.57;3.85;;;;;;;5.81;77.75;98413.19;4822057;29;20523;-78
2024/02/26 04:04:53;;;;;;;4.10;3.70;;;;;;;5.81;77.88;98413.19;4822509;29;20153;-77
2024/02/26 04:07:20;;;;;;;5.07;3.63;;;;;;;5.82;77.76;98416.63;4822437;29;20139;-76
2024/02/26 04:09:47;;;;;;;4.18;3.60;;;;;;;5.82;77.98;98419.25;4821720;29;20119;-76
2024/02/26 04:12:14;;;;;;;4.28;3.58;;;;;;;5.83;77.85;98419.16;4821740;29;20058;-78
2024/02/26 04:14:41;;;;;;;5.35;3.60;;;;;;;5.84;78.21;98420.84;4822135;29;20068;-76
2024/02/26 04:17:13;;;;;;;7.03;4.10;;;;;;;5.84;77.49;98427.84;4821990;29;20062;-75
2024/02/26 04:19:40;;;;;;;5.15;3.40;;;;;;;5.87;78.24;98430.28;4821995;29;20062;-77
2024/02/26 04:22:06;;;;;;;4.07;3.67;;;;;;;5.89;78.01;98431.03;4821779;29;20545;-76
2024/02/26 04:24:33;;;;;;;4.95;4.03;;;;;;;5.90;78.21;98437.09;4821764;29;20146;-76
2024/02/26 04:27:00;;;;;;;5.57;3.88;;;;;;;5.89;77.85;98436.25;4821769;29;20062;-77
2024/02/26 04:29:26;;;;;;;3.92;3.55;;;;;;;5.90;77.92;98437.09;4821424;29;20065;-75
2024/02/26 04:31:53;;;;;;;4.18;3.28;;;;;;;5.89;77.96;98436.25;4821828;29;20069;-75
2024/02/26 04:34:19;;;;;;;4.00;3.47;;;;;;;5.89;78.17;98448.44;4821811;29;20145;-77
2024/02/26 04:36:47;;;;;;;4.68;3.55;;;;;;;5.90;78.10;98450.97;4821764;29;20062;-76
2024/02/26 04:39:14;;;;;;;5.03;3.55;;;;;;;5.91;78.24;98444.81;4821527;29;20097;-76
2024/02/26 04:41:41;;;;;;;4.07;3.13;;;;;;;5.92;78.38;98456.97;4821607;29;20065;-76
2024/02/26 04:44:07;;;;;;;4.53;3.90;;;;;;;5.92;77.93;98462.19;4805352;29;20050;-76
2024/02/26 04:46:35;;;;;;;4.10;3.40;;;;;;;5.92;77.81;98456.13;4821791;29;20054;-75
2024/02/26 04:49:01;;;;;;;4.18;3.78;;;;;;;5.93;78.47;98452.56;4821553;29;20523;-77
2024/02/26 04:51:28;;;;;;;4.15;3.75;;;;;;;5.94;78.28;98444.63;4824887;29;20050;-79
2024/02/26 04:53:55;;;;;;;5.20;3.92;;;;;;;5.96;77.97;98455.00;4824965;29;20058;-76
2024/02/26 04:56:21;;;;;;;4.85;4.18;;;;;;;5.97;78.29;98454.06;4824703;29;20115;-77
2024/02/26 04:58:48;;;;;;;4.22;3.80;;;;;;;5.98;78.28;98461.81;4823288;29;20497;-75
2024/02/26 05:01:16;;;;;;;4.88;3.88;;;;;;;5.99;77.93;98460.88;4824925;29;20062;-75
2024/02/26 05:03:43;;;;;;;4.00;3.45;;;;;;;6.01;77.81;98466.00;4824842;29;20420;-76
2024/02/26 05:06:10;;;;;;;4.53;3.95;;;;;;;6.00;78.01;98459.97;4808772;29;20100;-75
2024/02/26 05:08:38;;;;;;;4.30;3.70;;;;;;;5.99;78.09;98468.72;4808316;29;20490;-76
2024/02/26 05:11:05;;;;;;;3.70;2.95;;;;;;;5.98;77.96;98464.44;4824479;29;20047;-75
2024/02/26 05:13:32;;;;;;;4.82;4.10;;;;;;;5.98;78.09;98466.22;4808406;29;20543;-77
2024/02/26 05:15:59;;;;;;;4.40;3.95;;;;;;;5.98;77.96;98466.22;4824158;29;20377;-76
2024/02/26 05:18:27;;;;;;;5.03;3.78;;;;;;;5.96;77.94;98466.31;4823919;29;20100;-76
2024/02/26 05:20:54;;;;;;;5.68;3.72;;;;;;;5.96;78.07;98462.84;4807874;29;20073;-76
2024/02/26 05:23:21;;;;;;;4.70;3.58;;;;;;;5.96;77.96;98468.06;4823875;29;20090;-77
2024/02/26 05:25:49;;;;;;;4.18;3.78;;;;;;;5.96;78.21;98473.28;4823920;29;20413;-77
2024/02/26 05:30:50;;;;;;;5.72;3.88;;;;;;;5.95;78.38;98480.28;4662358;24;20182;-78
2024/02/26 05:33:17;;;;;;;5.18;3.40;;;;;;;5.96;78.21;98486.34;4842206;29;20050;-77
2024/02/26 05:35:45;;;;;;;5.38;3.92;;;;;;;5.98;78.19;98479.28;4842636;29;20054;-80
2024/02/26 05:38:11;;;;;;;4.68;3.78;;;;;;;5.99;78.50;98481.78;4842120;29;20064;-78
2024/02/26 05:40:38;;;;;;;4.22;3.67;;;;;;;6.01;78.43;98484.31;4842929;29;20152;-79
2024/02/26 05:43:05;;;;;;;5.10;4.50;;;;;;;6.04;78.21;98488.53;4842556;29;20110;-79
2024/02/26 05:45:32;;;;;;;5.38;3.78;;;;;;;6.05;78.17;98485.00;4842435;29;20069;-80
2024/02/26 05:47:59;;;;;;;5.18;3.85;;;;;;;6.07;78.39;98488.34;4826008;29;20069;-79
2024/02/26 05:50:26;;;;;;;4.38;3.97;;;;;;;6.09;78.58;98483.91;4825841;29;20055;-78
2024/02/26 05:52:52;;;;;;;5.68;4.30;;;;;;;6.11;78.31;98489.88;4842389;29;20096;-78
2024/02/26 05:55:19;;;;;;;4.63;4.10;;;;;;;6.13;78.02;98494.06;4842469;29;20567;-81
2024/02/26 05:57:46;;;;;;;5.00;4.30;;;;;;;6.16;78.44;98497.44;4842226;29;20072;-79
2024/02/26 06:00:13;;;;;;;6.97;4.32;;;;;;;6.17;78.31;98496.50;4841705;29;20944;-81
2024/02/26 06:02:41;;;;;;;4.40;4.00;;;;;;;6.20;78.44;98504.16;4825776;29;20141;-81
2024/02/26 06:05:08;;;;;;;5.90;4.70;;;;;;;6.21;78.16;98504.06;4841997;29;20065;-78
2024/02/26 06:07:35;;;;;;;6.07;4.35;;;;;;;6.23;78.21;98511.81;4842204;29;20054;-80
2024/02/26 06:10:04;;;;;;;5.25;3.90;;;;;;;6.24;77.99;98523.94;4825432;29;20393;-78
2024/02/26 06:12:31;;;;;;;6.10;4.05;;;;;;;6.23;77.76;98519.66;4841826;29;20057;-82
2024/02/26 06:15:00;;;;;;;5.22;4.30;;;;;;;6.23;77.99;98522.25;4841785;29;20061;-79
2024/02/26 06:17:28;;;;;;;6.03;4.30;;;;;;;6.23;78.25;98532.72;4841927;29;20521;-81
2024/02/26 06:19:54;;;;;;;4.90;3.78;;;;;;;6.23;78.22;98535.31;4824987;29;20061;-78
2024/02/26 06:22:21;;;;;;;7.32;4.30;;;;;;;6.22;78.07;98539.72;4841941;29;20080;-78
2024/02/26 06:24:48;;;;;;;5.50;4.43;;;;;;;6.23;78.11;98537.94;4825148;29;20469;-82
2024/02/26 06:27:15;;;;;;;5.93;4.40;;;;;;;6.23;77.98;98543.16;4841626;29;20153;-78
2024/02/26 06:29:41;;;;;;;4.82;4.32;;;;;;;6.22;78.22;98539.72;4842109;29;20149;-79
2024/02/26 06:32:08;;;;;;;5.65;4.82;;;;;;;6.22;78.28;98536.25;4841682;29;20073;-81
2024/02/26 06:34:35;;;;;;;5.85;4.20;;;;;;;6.23;78.31;98537.94;4841322;29;20058;-79
2024/02/26 06:37:03;;;;;;;7.03;4.15;;;;;;;6.24;78.64;98540.47;4841413;29;20073;-81
2024/02/26 06:39:30;;;;;;;5.40;4.40;;;;;;;6.25;78.29;98541.31;4841115;29;20098;-78
2024/02/26 06:42:00;;;;;;;5.22;4.65;;;;;;;6.25;77.88;98536.91;4824570;29;20062;-83
2024/02/26 06:44:31;;;;;;;5.50;4.25;;;;;;;6.27;78.21;98542.06;4841196;29;20389;-80
2024/02/26 06:47:01;;;;;;;6.70;4.82;;;;;;;6.28;78.48;98543.72;4841227;29;20050;-81
2024/02/26 06:49:28;;;;;;;6.65;4.45;;;;;;;6.31;78.41;98535.72;4841276;29;20428;-79
2024/02/26 06:51:55;;;;;;;6.88;4.20;;;;;;;6.33;78.53;98536.47;4841285;29;20500;-81
2024/02/26 06:54:22;;;;;;;6.40;4.05;;;;;;;6.35;78.34;98541.59;4841430;29;20145;-80
2024/02/26 06:56:48;;;;;;;6.03;4.35;;;;;;;6.37;78.48;98537.97;4841173;29;20089;-79
2024/02/26 06:59:15;;;;;;;6.95;4.57;;;;;;;6.41;78.72;98545.63;4825037;29;20532;-78
2024/02/26 07:01:42;;;;;;;8.13;4.35;;;;;;;6.44;78.74;98553.28;4840484;29;20073;-82
2024/02/26 07:04:10;;;;;;;5.38;4.20;;;;;;;6.47;78.58;98558.34;4841034;29;20097;-80
2024/02/26 07:06:37;;;;;;;5.15;4.20;;;;;;;6.49;78.53;98559.94;4840750;29;20066;-81
2024/02/26 07:09:04;;;;;;;6.63;4.22;;;;;;;6.51;78.05;98558.06;4824644;29;20140;-78
2024/02/26 07:11:31;;;;;;;5.38;4.13;;;;;;;6.52;78.22;98564.13;4824192;29;20054;-80
2024/02/26 07:13:57;;;;;;;7.10;4.35;;;;;;;6.54;78.06;98562.25;4824314;29;20054;-77
2024/02/26 07:16:24;;;;;;;5.75;4.05;;;;;;;6.56;78.21;98564.78;4841169;29;20068;-79
2024/02/26 07:18:51;;;;;;;5.68;3.80;;;;;;;6.58;78.30;98573.38;4840943;29;20806;-83
2024/02/26 07:21:17;;;;;;;4.40;3.92;;;;;;;6.60;78.22;98569.75;4840831;29;20065;-78
2024/02/26 07:23:44;;;;;;;5.03;3.92;;;;;;;6.61;78.37;98568.81;4840816;29;20419;-78
2024/02/26 07:26:11;;;;;;;5.18;3.80;;;;;;;6.63;77.81;98571.34;4840953;29;20054;-78
2024/02/26 07:28:38;;;;;;;5.80;4.28;;;;;;;6.64;78.13;98568.63;4840911;29;20564;-78
2024/02/26 07:31:05;;;;;;;4.70;3.72;;;;;;;6.65;78.02;98572.91;4840711;29;20058;-79
2024/02/26 07:33:31;;;;;;;4.72;3.67;;;;;;;6.67;78.04;98574.59;4840570;29;20656;-78
2024/02/26 07:35:58;;;;;;;6.38;3.88;;;;;;;6.67;77.86;98579.81;4840731;29;20153;-78
2024/02/26 07:38:25;;;;;;;6.55;3.80;;;;;;;6.68;77.75;98581.50;4840486;29;20507;-79
2024/02/26 07:41:08;;;;;;;2.95;2.45;;;;;;;6.71;78.13;98578.72;4840165;29;20065;-78
2024/02/26 07:43:35;;;;;;;5.00;3.83;;;;;;;6.71;77.91;98573.47;4840661;29;20061;-77
2024/02/26 07:46:01;;;;;;;5.07;3.67;;;;;;;6.72;77.79;98578.63;4840431;29;20588;-82
2024/02/26 07:48:28;;;;;;;4.00;3.55;;;;;;;6.71;77.84;98581.31;4840263;29;20053;-77
2024/02/26 07:50:55;;;;;;;5.25;3.90;;;;;;;6.73;78.11;98584.72;4840173;29;20101;-78
2024/02/26 07:53:21;;;;;;;6.40;4.03;;;;;;;6.74;78.34;98573.31;4840300;29;20062;-77
2024/02/26 07:55:48;;;;;;;6.07;4.03;;;;;;;6.75;78.13;98569.75;4840184;29;20057;-78
2024/02/26 07:58:15;;;;;;;7.72;4.05;;;;;;;6.77;77.98;98581.78;4839994;29;20151;-77
2024/02/26 08:00:41;;;;;;;6.75;3.80;;;;;;;6.78;78.00;98580.84;4840494;29;20061;-82
2024/02/26 08:03:08;;;;;;;4.45;3.38;;;;;;;6.80;78.09;98578.16;4840547;29;20101;-78
2024/02/26 08:05:34;;;;;;;6.25;3.88;;;;;;;6.81;78.07;98577.25;4823819;29;20054;-78
2024/02/26 08:08:01;;;;;;;5.43;3.90;;;;;;;6.83;78.15;98580.59;4839920;29;20062;-79
2024/02/26 08:10:28;;;;;;;5.40;3.88;;;;;;;6.86;78.21;98577.78;4820510;29;20447;-79
2024/02/26 08:13:04;;;;;;;7.68;4.50;;;;;;;6.88;78.06;98578.53;4840013;29;20050;-78
2024/02/26 08:15:34;;;;;;;4.78;3.53;;;;;;;6.93;78.60;98585.25;4839783;29;20089;-77
2024/02/26 08:18:04;;;;;;;5.57;3.90;;;;;;;6.96;78.51;98587.69;4839284;29;20054;-78
2024/02/26 08:20:31;;;;;;;8.35;4.75;;;;;;;7.00;78.25;98595.25;4822832;29;20058;-81
2024/02/26 08:22:58;;;;;;;5.47;3.97;;;;;;;7.04;78.46;98598.53;4838916;29;20127;-82
2024/02/26 08:25:25;;;;;;;8.20;4.35;;;;;;;7.08;78.24;98607.88;4842353;29;20097;-79
2024/02/26 08:27:52;;;;;;;6.50;4.65;;;;;;;7.13;78.43;98604.97;4842642;29;20054;-79
2024/02/26 08:30:18;;;;;;;5.63;4.07;;;;;;;7.16;78.31;98610.88;4843219;29;20049;-78
2024/02/26 08:32:47;;;;;;;5.50;4.30;;;;;;;7.20;77.92;98613.28;4841805;29;20412;-77
2024/02/26 08:35:18;;;;;;;5.28;4.20;;;;;;;7.24;77.91;98614.78;4840816;29;20133;-78
2024/02/26 08:37:46;;;;;;;4.45;3.63;;;;;;;7.27;78.11;98614.59;4840942;29;20058;-81
2024/02/26 08:40:13;;;;;;;5.72;4.07;;;;;;;7.29;77.81;98616.19;4840859;29;20078;-79
2024/02/26 08:42:39;;;;;;;5.35;4.03;;;;;;;7.30;78.04;98617.03;4840845;29;20058;-83
2024/02/26 08:45:07;;;;;;;4.78;4.20;;;;;;;7.32;77.46;98624.78;4841750;29;20061;-79
2024/02/26 08:47:34;;;;;;;4.70;3.95;;;;;;;7.33;77.82;98616.81;4825610;29;20064;-79
2024/02/26 08:50:03;;;;;;;5.95;4.05;;;;;;;7.35;77.56;98628.06;4841871;29;20062;-80
2024/02/26 08:52:30;;;;;;;5.20;4.25;;;;;;;7.38;77.91;98625.25;4841927;29;20061;-79
2024/02/26 08:54:57;;;;;;;5.95;4.20;;;;;;;7.40;77.84;98631.22;4841764;29;20072;-81
2024/02/26 08:57:23;;;;;;;6.18;4.60;;;;;;;7.45;78.02;98635.31;4841509;29;20069;-78
2024/02/26 08:59:50;;;;;;;6.20;4.80;;;;;;;7.48;77.72;98635.97;4840879;29;20061;-82
2024/02/26 09:02:17;;;;;;;6.43;4.38;;;;;;;7.52;77.89;98644.50;4841632;29;20089;-80
2024/02/26 09:04:44;;;;;;;6.40;4.53;;;;;;;7.55;77.89;98646.91;4842037;29;20066;-79
2024/02/26 09:07:11;;;;;;;7.03;4.72;;;;;;;7.58;77.70;98649.34;4842329;29;20053;-81
2024/02/26 09:09:37;;;;;;;5.88;4.43;;;;;;;7.60;77.82;98646.63;4841076;29;20525;-80
2024/02/26 09:12:04;;;;;;;6.25;5.03;;;;;;;7.63;77.96;98657.75;4840702;29;20058;-77
2024/02/26 09:14:31;;;;;;;7.43;4.65;;;;;;;7.67;78.09;98653.16;4841910;29;20054;-81
2024/02/26 09:16:58;;;;;;;6.40;4.97;;;;;;;7.69;78.00;98657.38;4841006;29;20092;-81
2024/02/26 09:19:27;;;;;;;6.50;4.80;;;;;;;7.72;77.60;98660.72;4841361;29;20050;-78
2024/02/26 09:21:57;;;;;;;6.65;4.75;;;;;;;7.75;77.73;98663.16;4840355;29;20057;-78
2024/02/26 09:24:25;;;;;;;7.70;4.90;;;;;;;7.78;77.97;98669.03;4841405;29;20065;-80
2024/02/26 09:26:52;;;;;;;7.07;4.70;;;;;;;7.79;77.95;98670.75;4841157;29;20140;-78
2024/02/26 09:29:18;;;;;;;8.65;4.50;;;;;;;7.81;77.74;98668.00;4840932;29;20553;-80
2024/02/26 09:31:47;;;;;;;7.30;4.80;;;;;;;7.82;77.46;98680.19;4803130;29;1152867;-78
2024/02/26 09:34:14;;;;;;;8.82;4.80;;;;;;;7.84;77.24;98680.91;4842441;29;20050;-79
2024/02/26 09:36:41;;;;;;;6.80;4.60;;;;;;;7.84;77.18;98688.78;4840346;29;20545;-81
2024/02/26 09:39:11;;;;;;;6.43;5.05;;;;;;;7.85;77.67;98690.44;4841835;29;20089;-80
2024/02/26 09:41:39;;;;;;;4.82;4.32;;;;;;;7.86;77.71;98688.69;4842210;29;20064;-80
2024/02/26 09:44:05;;;;;;;7.35;4.72;;;;;;;7.88;77.37;98684.16;4841956;29;20081;-80
2024/02/26 09:46:33;;;;;;;8.30;4.35;;;;;;;7.89;77.83;98697.19;4842129;29;20085;-78
2024/02/26 09:49:00;;;;;;;6.65;4.63;;;;;;;7.91;77.66;98692.69;4841903;29;20504;-79
2024/02/26 09:51:27;;;;;;;5.88;4.80;;;;;;;7.93;77.55;98696.03;4841746;29;20141;-78
2024/02/26 09:53:54;;;;;;;6.38;4.32;;;;;;;7.93;77.36;98696.03;4841981;29;20065;-80
2024/02/26 09:56:21;;;;;;;6.40;4.60;;;;;;;7.97;77.76;98695.84;4841636;29;20061;-79
2024/02/26 09:58:53;;;;;;;4.90;4.35;;;;;;;7.99;77.69;98696.63;4841711;29;20128;-80
2024/02/26 10:01:20;;;;;;;5.87;4.97;;;;;;;8.02;77.57;98701.66;4825586;29;20058;-82
2024/02/26 10:03:56;;;;;;;6.07;4.68;;;;;;;8.00;76.14;98696.50;4841893;29;20062;-79
2024/02/26 10:06:26;;;;;;;5.50;4.15;;;;;;;8.05;77.46;98704.06;4841619;29;20126;-80
2024/02/26 10:08:54;;;;;;;8.70;4.35;;;;;;;8.06;77.75;98703.13;4841256;29;20069;-80
2024/02/26 10:11:22;;;;;;;5.88;4.68;;;;;;;8.08;77.61;98706.50;4841661;29;20097;-80
2024/02/26 10:13:49;;;;;;;5.70;4.30;;;;;;;8.11;77.62;98716.78;4841641;29;20061;-82
2024/02/26 10:16:16;;;;;;;7.40;5.15;;;;;;;8.15;78.17;98718.25;4841558;29;20090;-79
2024/02/26 10:18:55;;;;;;;10.00;5.72;;;;;;;8.16;76.42;98719.97;4841420;29;20827;-78
2024/02/26 10:21:25;;;;;;;7.25;4.25;;;;;;;8.25;78.11;98720.28;4841333;29;20096;-79
2024/02/26 10:23:52;;;;;;;5.70;4.07;;;;;;;8.28;77.84;98722.72;4841586;29;20062;-79
2024/02/26 10:26:20;;;;;;;5.38;4.30;;;;;;;8.31;77.67;98722.53;4841507;29;20058;-81
2024/02/26 10:28:47;;;;;;;7.68;4.03;;;;;;;8.35;77.93;98734.50;4841247;29;20153;-79
2024/02/26 10:31:19;;;;;;;4.95;3.92;;;;;;;8.39;77.70;98736.00;4841326;29;20107;-79
2024/02/26 10:33:46;;;;;;;4.40;3.58;;;;;;;8.42;77.49;98735.81;4841293;29;20066;-82
2024/02/26 10:36:13;;;;;;;4.13;3.17;;;;;;;8.44;77.54;98744.41;4841098;29;20061;-79
2024/02/26 10:38:39;;;;;;;4.53;3.88;;;;;;;8.47;77.54;98744.22;4841052;29;20058;-78
2024/02/26 10:41:06;;;;;;;5.57;3.60;;;;;;;8.50;77.45;98748.41;4841337;29;20065;-79
2024/02/26 10:43:33;;;;;;;4.88;3.88;;;;;;;8.54;77.55;98751.72;4841165;29;20603;-78
2024/02/26 10:46:00;;;;;;;4.43;3.53;;;;;;;8.57;77.30;98744.47;4840991;29;20064;-78
2024/02/26 10:48:26;;;;;;;6.93;3.67;;;;;;;8.60;77.53;98760.00;4840236;29;20046;-80
2024/02/26 10:50:53;;;;;;;5.00;3.63;;;;;;;8.66;77.34;98764.03;4824729;29;20094;-80
2024/02/26 10:53:21;;;;;;;4.63;3.60;;;;;;;8.70;76.75;98765.50;4824704;29;20089;-78
2024/02/26 10:56:03;;;;;;;4.95;3.63;;;;;;;8.70;74.90;98770.75;4824719;29;20089;-82
2024/02/26 10:58:31;;;;;;;4.65;3.60;;;;;;;8.77;76.45;98771.19;4840709;29;20050;-79
2024/02/26 11:00:59;;;;;;;4.95;4.10;;;;;;;8.82;76.79;98773.53;4840710;29;20724;-79
2024/02/26 11:03:26;;;;;;;4.68;3.83;;;;;;;8.84;76.49;98779.50;4840884;29;20138;-79
2024/02/26 11:05:54;;;;;;;4.50;3.40;;;;;;;8.88;76.76;98775.75;4840811;29;20093;-79
2024/02/26 11:08:21;;;;;;;4.07;3.15;;;;;;;8.89;76.57;98785.28;4840612;29;20060;-78
2024/02/26 11:10:52;;;;;;;4.15;3.50;;;;;;;8.91;75.81;98787.81;4840640;29;20062;-79
2024/02/26 11:13:20;;;;;;;5.82;3.70;;;;;;;8.94;76.29;98793.69;4840625;29;20093;-80
2024/02/26 11:15:49;;;;;;;4.82;3.60;;;;;;;8.95;76.22;98789.28;4840447;29;20050;-78
2024/02/26 11:18:19;;;;;;;4.50;3.35;;;;;;;8.97;76.37;98796.13;4840552;29;20096;-78
2024/02/26 11:20:48;;;;;;;4.78;3.67;;;;;;;9.00;76.27;98789.84;4824330;29;20469;-79
2024/02/26 11:23:15;;;;;;;5.00;3.65;;;;;;;9.02;76.06;98787.09;4840485;29;20065;-82
2024/02/26 11:25:43;;;;;;;5.40;3.40;;;;;;;9.04;76.00;98780.00;4840202;29;20559;-78
2024/02/26 11:28:13;;;;;;;4.72;3.50;;;;;;;9.06;75.48;98789.44;4840019;29;20122;-79
2024/02/26 11:30:45;;;;;;;5.25;3.40;;;;;;;9.06;75.05;98778.94;4840148;29;20486;-79
2024/02/26 11:33:13;;;;;;;4.77;3.90;;;;;;;9.10;76.20;98792.69;4840196;29;20587;-78
2024/02/26 11:35:41;;;;;;;3.83;3.25;;;;;;;9.14;76.45;98794.16;4840266;29;20397;-79
2024/02/26 11:38:08;;;;;;;5.32;3.47;;;;;;;9.17;76.22;98782.63;4840006;29;20062;-78
2024/02/26 11:40:39;;;;;;;5.07;3.50;;;;;;;9.16;75.13;98784.41;4840061;29;20096;-83
2024/02/26 11:43:07;;;;;;;5.10;3.65;;;;;;;9.20;76.21;98787.69;4824014;29;20094;-79
2024/02/26 11:45:39;;;;;;;5.50;3.70;;;;;;;9.21;74.68;98778.84;4839919;29;20076;-78